Main page
METAR-TAF:

METAR-TAF

Airports :

Canoas Air Force Base

Porto Alegre, Rio Grande do Sul, Brazil

latitude: 30-01S, longitude: 051-13W, elevation: 47 m

Current weather observation

The report was made 21 minutes ago, at 16:00 UTC
Wind 3 kt from the West, varying between West/Southwest and Northwest
Temperature 21°C
Humidity 49%
Pressure 1018 hPa
Visibility 10 km or more
no clouds below 1500 m and no cumulonimbus

METAR: SBCO 281600Z 26003KT 240V320 CAVOK 21/10 Q1018

Time: 13:21 (16:21 UTC)

Forecast

The report was made 7 hours and 21 minutes ago, at 09:00 UTC
Forecast valid from 28 at 12 UTC to 28 at 24 UTC
Wind 5 kt from the East/Southeast
Visibility 10 km or more
no clouds below 1500 m and no cumulonimbus

TAF: SBCO 280900Z 2812/2824 11005KT CAVOK TN12/2812Z TX22/2818Z RMK PDW

Weather observations and forecasts of more than 4000 airports (METAR and TAF reports).

The available stations are represented by yellow and red dots on the map.

Hover mouse over dot to see the name of the station.

Then click to see weather observations and forecasts.

To change the map : click on the green buttons with a black cross to zoom in, on the green button with a dash to zoom out, or on the green arrows for adjacent maps.


METAR-TAF: